»·PEaware :: N648CR KBLH-KBXK

N648CR :: KBLH-KBXK

FLIGHT INFORMATION

Flight Status: Arrived
Operator: Privately registered:
United States
More flights under this callsign
Pilot: James D. (19799)
Aircraft: CESSNA 172 SKYHAWK
(C172)
More flights by this aircraft type
Origin: KBLH Blythe
United States
Destination: KBXK Buckeye Mun
United States
More flights between these airports :: More routes between these airports
Route: +VFR
File this flight plan on PilotEdge
Remarks:
Altitude:
(Current/Filed)
0ft
Speed:
(Current/Filed)
0kts
Departed: 12-Sep-18 10:49 AM
Arrived: 12-Sep-18 11:34 AM
Distance/Time
Traveled:
1nm/0:45
Distance/Time
To Go:
Arrived

Flight Plot

Page will automatically refresh every two minutes.

Flight plan parsing failed; only flown route is shown


Map Options




Map Legend


Flown Route
Filed Route
Departure Airport
Arrival Airport
Navaid (VOR, NDB)
Fix

Horizontal Profiles

Position Reports

Time Latitude Longitude Heading Altitude Ground
Speed
12-Sep-18 10:50 33.597893 -114.479728 93 6665ft 128kts
12-Sep-18 10:51 33.594113 -114.439290 93 6590ft 115kts
12-Sep-18 10:52 33.590435 -114.398692 93 6591ft 126kts
12-Sep-18 10:53 33.586559 -114.356760 93 6591ft 127kts
12-Sep-18 10:54 33.582720 -114.315292 94 6591ft 127kts
12-Sep-18 10:55 33.578813 -114.273271 94 6591ft 127kts
12-Sep-18 10:56 33.574882 -114.231207 94 6591ft 127kts
12-Sep-18 10:57 33.570932 -114.189024 94 6591ft 127kts
12-Sep-18 10:58 33.566987 -114.146977 94 6591ft 127kts
12-Sep-18 10:59 33.563094 -114.104723 94 6591ft 127kts
12-Sep-18 11:00 33.559140 -114.062535 94 6591ft 127kts
12-Sep-18 11:01 33.555135 -114.020292 94 6591ft 127kts
12-Sep-18 11:07 33.530897 -113.768574 94 6591ft 127kts
12-Sep-18 11:08 33.526823 -113.726718 94 6591ft 127kts
12-Sep-18 11:09 33.522697 -113.684581 94 6591ft 127kts
12-Sep-18 11:10 33.518552 -113.642364 94 6591ft 127kts
12-Sep-18 11:11 33.514411 -113.600358 94 6591ft 127kts
12-Sep-18 11:12 33.510231 -113.558098 94 6591ft 127kts
12-Sep-18 11:13 33.506054 -113.515932 94 6591ft 127kts
12-Sep-18 11:14 33.501665 -113.473765 95 6591ft 127kts
12-Sep-18 11:15 33.497250 -113.431805 95 6591ft 127kts
12-Sep-18 11:16 33.493066 -113.389616 94 6591ft 127kts
12-Sep-18 11:17 33.488903 -113.347525 95 6591ft 127kts
12-Sep-18 11:18 33.484705 -113.305699 95 6591ft 127kts
12-Sep-18 11:19 33.480447 -113.263653 95 6591ft 127kts
12-Sep-18 11:20 33.476126 -113.221340 95 6591ft 127kts
12-Sep-18 11:21 33.471843 -113.179353 95 6591ft 127kts
12-Sep-18 11:22 33.467528 -113.137203 95 6591ft 127kts
12-Sep-18 11:23 33.463209 -113.095152 95 6591ft 127kts
12-Sep-18 11:24 33.459018 -113.054528 95 6591ft 127kts
12-Sep-18 11:25 33.454669 -113.012530 95 6591ft 125kts
12-Sep-18 11:26 33.450398 -112.971385 95 6591ft 123kts
12-Sep-18 11:27 33.446140 -112.930513 95 6591ft 123kts
12-Sep-18 11:28 33.441920 -112.890690 95 6046ft 123kts
12-Sep-18 11:29 33.437544 -112.849217 96 5051ft 127kts
12-Sep-18 11:30 33.433142 -112.807316 96 4051ft 125kts
12-Sep-18 11:31 33.428758 -112.765771 96 3056ft 129kts
12-Sep-18 11:32 33.424259 -112.723284 97 2066ft 128kts
12-Sep-18 11:33 33.399112 -112.710166 178 1991ft 104kts
12-Sep-18 11:34 33.386286 -112.690484 49 1941ft 90kts
12-Sep-18 11:35 33.408302 -112.686786 2 1154ft 67kts
12-Sep-18 11:36 33.420871 -112.686079 63 1006ft 11kts
12-Sep-18 11:37 33.420548 -112.684126 159 1006ft 1kts
12-Sep-18 11:38 33.420470 -112.683938 90 1005ft 0kts
12-Sep-18 11:39 33.420470 -112.683938 90 1005ft 0kts
12-Sep-18 11:40 33.420470 -112.683938 90 1005ft 0kts
12-Sep-18 11:41 33.420470 -112.683938 90 1005ft 0kts
12-Sep-18 11:42 33.420470 -112.683938 90 1005ft 0kts
12-Sep-18 11:43 33.420470 -112.683938 90 1005ft 0kts
12-Sep-18 11:44 33.420470 -112.683938 90 1005ft 0kts
12-Sep-18 11:45 33.420470 -112.683938 90 1005ft 0kts
12-Sep-18 11:46 33.614162 -114.714292 359 392ft 0kts
12-Sep-18 11:47 33.399346 -112.687522 354 1483ft 82kts
12-Sep-18 11:48 33.416278 -112.686542 0 998ft 55kts
12-Sep-18 11:49 33.614988 -114.715872 270 394ft 14kts
12-Sep-18 11:50 33.615065 -114.727756 268 394ft 0kts

Navigation Log

Ident Type
Flight plan parsing failed, navigation log unavailable